sensor_id;sensor_type;location;lat;lon;timestamp;temperature;humidity
63260;DHT22;49390;51.380;0.098;2022-10-20T00:01:36;14.60;99.90
63260;DHT22;49390;51.380;0.098;2022-10-20T00:04:04;14.60;99.90
63260;DHT22;49390;51.380;0.098;2022-10-20T00:06:33;14.60;99.90
63260;DHT22;49390;51.380;0.098;2022-10-20T00:09:03;14.60;99.90
63260;DHT22;49390;51.380;0.098;2022-10-20T00:11:32;14.50;99.90
63260;DHT22;49390;51.380;0.098;2022-10-20T00:14:01;14.50;99.90
63260;DHT22;49390;51.380;0.098;2022-10-20T00:16:33;14.50;99.90
63260;DHT22;49390;51.380;0.098;2022-10-20T00:19:01;14.50;99.90
63260;DHT22;49390;51.380;0.098;2022-10-20T00:21:30;14.50;99.90
63260;DHT22;49390;51.380;0.098;2022-10-20T00:24:02;14.50;99.90
63260;DHT22;49390;51.380;0.098;2022-10-20T00:26:31;14.50;99.90
63260;DHT22;49390;51.380;0.098;2022-10-20T00:29:01;14.50;99.90
63260;DHT22;49390;51.380;0.098;2022-10-20T00:31:29;14.50;99.90
63260;DHT22;49390;51.380;0.098;2022-10-20T00:33:58;14.50;99.90
63260;DHT22;49390;51.380;0.098;2022-10-20T00:36:26;14.50;99.90
63260;DHT22;49390;51.380;0.098;2022-10-20T00:38:58;14.50;99.90
63260;DHT22;49390;51.380;0.098;2022-10-20T00:41:28;14.50;99.90
63260;DHT22;49390;51.380;0.098;2022-10-20T00:44:02;14.50;99.90
63260;DHT22;49390;51.380;0.098;2022-10-20T00:46:40;14.50;99.90
63260;DHT22;49390;51.380;0.098;2022-10-20T00:51:47;14.40;99.90
63260;DHT22;49390;51.380;0.098;2022-10-20T00:54:22;14.40;99.90
63260;DHT22;49390;51.380;0.098;2022-10-20T00:56:54;14.40;99.90
63260;DHT22;49390;51.380;0.098;2022-10-20T00:59:27;14.40;99.90
63260;DHT22;49390;51.380;0.098;2022-10-20T01:01:57;14.40;99.90
63260;DHT22;49390;51.380;0.098;2022-10-20T01:04:28;14.40;99.90
63260;DHT22;49390;51.380;0.098;2022-10-20T01:06:57;14.40;99.90
63260;DHT22;49390;51.380;0.098;2022-10-20T01:09:26;14.50;99.90
63260;DHT22;49390;51.380;0.098;2022-10-20T01:14:43;14.50;99.90
63260;DHT22;49390;51.380;0.098;2022-10-20T01:28:24;14.60;99.90
63260;DHT22;49390;51.380;0.098;2022-10-20T01:30:58;14.60;99.90
63260;DHT22;49390;51.380;0.098;2022-10-20T01:33:40;14.60;99.90
63260;DHT22;49390;51.380;0.098;2022-10-20T01:36:26;14.60;99.90
63260;DHT22;49390;51.380;0.098;2022-10-20T01:39:30;14.60;99.90
63260;DHT22;49390;51.380;0.098;2022-10-20T01:42:10;14.60;99.90
63260;DHT22;49390;51.380;0.098;2022-10-20T01:44:41;14.60;99.90
63260;DHT22;49390;51.380;0.098;2022-10-20T01:47:11;14.60;99.90
63260;DHT22;49390;51.380;0.098;2022-10-20T01:52:06;14.60;99.90
63260;DHT22;49390;51.380;0.098;2022-10-20T01:54:34;14.60;99.90
63260;DHT22;49390;51.380;0.098;2022-10-20T01:57:21;14.70;99.90
63260;DHT22;49390;51.380;0.098;2022-10-20T02:02:50;14.70;99.90
63260;DHT22;49390;51.380;0.098;2022-10-20T02:10:55;14.80;99.90
63260;DHT22;49390;51.380;0.098;2022-10-20T02:13:25;14.80;99.90
63260;DHT22;49390;51.380;0.098;2022-10-20T02:16:00;14.80;99.90
63260;DHT22;49390;51.380;0.098;2022-10-20T02:18:32;14.80;99.90
63260;DHT22;49390;51.380;0.098;2022-10-20T02:21:02;14.80;99.90
63260;DHT22;49390;51.380;0.098;2022-10-20T02:23:33;14.90;99.90
63260;DHT22;49390;51.380;0.098;2022-10-20T02:26:13;14.90;99.90
63260;DHT22;49390;51.380;0.098;2022-10-20T02:28:46;14.90;99.90
63260;DHT22;49390;51.380;0.098;2022-10-20T02:31:18;14.90;99.90
63260;DHT22;49390;51.380;0.098;2022-10-20T02:33:47;15.00;99.90
63260;DHT22;49390;51.380;0.098;2022-10-20T02:36:19;15.00;99.90
63260;DHT22;49390;51.380;0.098;2022-10-20T02:38:47;15.00;99.90
63260;DHT22;49390;51.380;0.098;2022-10-20T02:41:15;15.00;99.90
63260;DHT22;49390;51.380;0.098;2022-10-20T02:43:43;15.10;99.90
63260;DHT22;49390;51.380;0.098;2022-10-20T02:46:12;15.10;99.90
63260;DHT22;49390;51.380;0.098;2022-10-20T02:48:40;15.10;99.90
63260;DHT22;49390;51.380;0.098;2022-10-20T02:51:08;15.20;99.90
63260;DHT22;49390;51.380;0.098;2022-10-20T02:53:37;15.10;99.90
63260;DHT22;49390;51.380;0.098;2022-10-20T02:56:06;15.20;99.90
63260;DHT22;49390;51.380;0.098;2022-10-20T02:58:33;15.20;99.90
63260;DHT22;49390;51.380;0.098;2022-10-20T03:01:02;15.30;99.90
63260;DHT22;49390;51.380;0.098;2022-10-20T03:03:30;15.20;99.90
63260;DHT22;49390;51.380;0.098;2022-10-20T03:06:12;15.30;99.90
63260;DHT22;49390;51.380;0.098;2022-10-20T03:08:42;15.30;99.90
63260;DHT22;49390;51.380;0.098;2022-10-20T03:11:12;15.30;99.90
63260;DHT22;49390;51.380;0.098;2022-10-20T03:13:40;15.30;99.90
63260;DHT22;49390;51.380;0.098;2022-10-20T03:16:09;15.30;99.90
63260;DHT22;49390;51.380;0.098;2022-10-20T03:18:37;15.30;99.90
63260;DHT22;49390;51.380;0.098;2022-10-20T03:21:05;15.30;99.90
63260;DHT22;49390;51.380;0.098;2022-10-20T03:23:33;15.40;99.90
63260;DHT22;49390;51.380;0.098;2022-10-20T03:26:08;15.40;99.90
63260;DHT22;49390;51.380;0.098;2022-10-20T03:28:37;15.30;99.90
63260;DHT22;49390;51.380;0.098;2022-10-20T03:31:06;15.40;99.90
63260;DHT22;49390;51.380;0.098;2022-10-20T03:33:34;15.40;99.90
63260;DHT22;49390;51.380;0.098;2022-10-20T03:36:03;15.40;99.90
63260;DHT22;49390;51.380;0.098;2022-10-20T03:38:32;15.40;99.90
63260;DHT22;49390;51.380;0.098;2022-10-20T03:41:00;15.40;99.90
63260;DHT22;49390;51.380;0.098;2022-10-20T03:43:33;15.40;99.90
63260;DHT22;49390;51.380;0.098;2022-10-20T03:46:05;15.40;99.90
63260;DHT22;49390;51.380;0.098;2022-10-20T03:48:35;15.40;99.90
63260;DHT22;49390;51.380;0.098;2022-10-20T03:51:03;15.50;99.90
63260;DHT22;49390;51.380;0.098;2022-10-20T03:53:32;15.40;99.90
63260;DHT22;49390;51.380;0.098;2022-10-20T03:56:08;15.50;99.90
63260;DHT22;49390;51.380;0.098;2022-10-20T03:58:36;15.40;99.90
63260;DHT22;49390;51.380;0.098;2022-10-20T04:01:06;15.50;99.90
63260;DHT22;49390;51.380;0.098;2022-10-20T04:03:38;15.50;99.90
63260;DHT22;49390;51.380;0.098;2022-10-20T04:06:06;15.50;99.90
63260;DHT22;49390;51.380;0.098;2022-10-20T04:08:35;15.50;99.90
63260;DHT22;49390;51.380;0.098;2022-10-20T04:11:04;15.40;99.90
63260;DHT22;49390;51.380;0.098;2022-10-20T04:13:32;15.40;99.90
63260;DHT22;49390;51.380;0.098;2022-10-20T04:16:00;15.40;99.90
63260;DHT22;49390;51.380;0.098;2022-10-20T04:18:29;15.50;99.90
63260;DHT22;49390;51.380;0.098;2022-10-20T04:20:57;15.50;99.90
63260;DHT22;49390;51.380;0.098;2022-10-20T04:23:27;15.50;99.90
63260;DHT22;49390;51.380;0.098;2022-10-20T04:25:56;15.50;99.90
63260;DHT22;49390;51.380;0.098;2022-10-20T04:28:23;15.40;99.90
63260;DHT22;49390;51.380;0.098;2022-10-20T04:30:52;15.50;99.90
63260;DHT22;49390;51.380;0.098;2022-10-20T04:33:20;15.50;99.90
63260;DHT22;49390;51.380;0.098;2022-10-20T04:35:56;15.50;99.90
63260;DHT22;49390;51.380;0.098;2022-10-20T04:38:27;15.50;99.90
63260;DHT22;49390;51.380;0.098;2022-10-20T04:40:57;15.50;99.90
63260;DHT22;49390;51.380;0.098;2022-10-20T04:43:31;15.50;99.90
63260;DHT22;49390;51.380;0.098;2022-10-20T04:46:02;15.50;99.90
63260;DHT22;49390;51.380;0.098;2022-10-20T04:48:36;15.50;99.90
63260;DHT22;49390;51.380;0.098;2022-10-20T04:51:07;15.60;99.90
63260;DHT22;49390;51.380;0.098;2022-10-20T04:53:36;15.60;99.90
63260;DHT22;49390;51.380;0.098;2022-10-20T04:56:06;15.60;99.90
63260;DHT22;49390;51.380;0.098;2022-10-20T04:58:34;15.60;99.90
63260;DHT22;49390;51.380;0.098;2022-10-20T05:01:05;15.60;99.90
63260;DHT22;49390;51.380;0.098;2022-10-20T05:03:34;15.60;99.90
63260;DHT22;49390;51.380;0.098;2022-10-20T05:06:10;15.60;99.90
63260;DHT22;49390;51.380;0.098;2022-10-20T05:08:39;15.60;99.90
63260;DHT22;49390;51.380;0.098;2022-10-20T05:11:07;15.60;99.90
63260;DHT22;49390;51.380;0.098;2022-10-20T05:13:36;15.60;99.90
63260;DHT22;49390;51.380;0.098;2022-10-20T05:16:05;15.60;99.90
63260;DHT22;49390;51.380;0.098;2022-10-20T05:18:34;15.60;99.90
63260;DHT22;49390;51.380;0.098;2022-10-20T05:21:10;15.60;99.90
63260;DHT22;49390;51.380;0.098;2022-10-20T05:23:40;15.60;99.90
63260;DHT22;49390;51.380;0.098;2022-10-20T05:26:11;15.60;99.90
63260;DHT22;49390;51.380;0.098;2022-10-20T05:28:46;15.70;99.90
63260;DHT22;49390;51.380;0.098;2022-10-20T05:31:15;15.60;99.90
63260;DHT22;49390;51.380;0.098;2022-10-20T05:33:46;15.60;99.90
63260;DHT22;49390;51.380;0.098;2022-10-20T05:36:16;15.60;99.90
63260;DHT22;49390;51.380;0.098;2022-10-20T05:38:49;15.60;99.90
63260;DHT22;49390;51.380;0.098;2022-10-20T05:41:26;15.60;99.90
63260;DHT22;49390;51.380;0.098;2022-10-20T05:43:57;15.60;99.90
63260;DHT22;49390;51.380;0.098;2022-10-20T05:46:28;15.60;99.90
63260;DHT22;49390;51.380;0.098;2022-10-20T05:48:58;15.60;99.90
63260;DHT22;49390;51.380;0.098;2022-10-20T05:51:29;15.60;99.90
63260;DHT22;49390;51.380;0.098;2022-10-20T05:53:59;15.60;99.90
63260;DHT22;49390;51.380;0.098;2022-10-20T05:56:28;15.60;99.90
63260;DHT22;49390;51.380;0.098;2022-10-20T05:58:56;15.60;99.90
63260;DHT22;49390;51.380;0.098;2022-10-20T06:01:28;15.60;99.90
63260;DHT22;49390;51.380;0.098;2022-10-20T06:04:07;15.60;99.90
63260;DHT22;49390;51.380;0.098;2022-10-20T06:06:36;15.60;99.90
63260;DHT22;49390;51.380;0.098;2022-10-20T06:09:07;15.60;99.90
63260;DHT22;49390;51.380;0.098;2022-10-20T06:11:36;15.60;99.90
63260;DHT22;49390;51.380;0.098;2022-10-20T06:14:09;15.60;99.90
63260;DHT22;49390;51.380;0.098;2022-10-20T06:16:37;15.60;99.90
63260;DHT22;49390;51.380;0.098;2022-10-20T06:19:05;15.60;99.90
63260;DHT22;49390;51.380;0.098;2022-10-20T06:21:35;15.60;99.90
63260;DHT22;49390;51.380;0.098;2022-10-20T06:24:04;15.60;99.90
63260;DHT22;49390;51.380;0.098;2022-10-20T06:26:34;15.60;99.90
63260;DHT22;49390;51.380;0.098;2022-10-20T06:29:09;15.60;99.90
63260;DHT22;49390;51.380;0.098;2022-10-20T06:31:42;15.60;99.90
63260;DHT22;49390;51.380;0.098;2022-10-20T06:34:18;15.60;99.90
63260;DHT22;49390;51.380;0.098;2022-10-20T06:36:47;15.60;99.90
63260;DHT22;49390;51.380;0.098;2022-10-20T06:39:17;15.70;99.90
63260;DHT22;49390;51.380;0.098;2022-10-20T06:41:49;15.70;99.90
63260;DHT22;49390;51.380;0.098;2022-10-20T06:45:21;15.60;99.90
63260;DHT22;49390;51.380;0.098;2022-10-20T06:47:50;15.70;99.90
63260;DHT22;49390;51.380;0.098;2022-10-20T06:50:18;15.70;99.90
63260;DHT22;49390;51.380;0.098;2022-10-20T06:52:46;15.70;99.90
63260;DHT22;49390;51.380;0.098;2022-10-20T06:55:14;15.70;99.90
63260;DHT22;49390;51.380;0.098;2022-10-20T06:57:42;15.70;99.90
63260;DHT22;49390;51.380;0.098;2022-10-20T07:00:11;15.70;99.90
63260;DHT22;49390;51.380;0.098;2022-10-20T07:02:39;15.70;99.90
63260;DHT22;49390;51.380;0.098;2022-10-20T07:05:07;15.70;99.90
63260;DHT22;49390;51.380;0.098;2022-10-20T07:07:36;15.70;99.90
63260;DHT22;49390;51.380;0.098;2022-10-20T07:10:04;15.70;99.90
63260;DHT22;49390;51.380;0.098;2022-10-20T07:12:32;15.70;99.90
63260;DHT22;49390;51.380;0.098;2022-10-20T07:15:01;15.80;99.90
63260;DHT22;49390;51.380;0.098;2022-10-20T07:17:28;15.80;99.90
63260;DHT22;49390;51.380;0.098;2022-10-20T07:19:57;15.70;99.90
63260;DHT22;49390;51.380;0.098;2022-10-20T07:22:25;15.80;99.90
63260;DHT22;49390;51.380;0.098;2022-10-20T07:24:53;15.80;99.90
63260;DHT22;49390;51.380;0.098;2022-10-20T07:27:22;15.80;99.90
63260;DHT22;49390;51.380;0.098;2022-10-20T07:29:50;15.80;99.90
63260;DHT22;49390;51.380;0.098;2022-10-20T07:32:18;15.80;99.90
63260;DHT22;49390;51.380;0.098;2022-10-20T07:34:46;15.80;99.90
63260;DHT22;49390;51.380;0.098;2022-10-20T07:37:17;15.90;99.90
63260;DHT22;49390;51.380;0.098;2022-10-20T07:39:46;15.90;99.90
63260;DHT22;49390;51.380;0.098;2022-10-20T07:42:13;15.90;99.90
63260;DHT22;49390;51.380;0.098;2022-10-20T07:44:42;15.90;99.90
63260;DHT22;49390;51.380;0.098;2022-10-20T07:47:10;15.90;99.90
63260;DHT22;49390;51.380;0.098;2022-10-20T07:49:38;15.90;99.90
63260;DHT22;49390;51.380;0.098;2022-10-20T07:52:11;15.90;99.90
63260;DHT22;49390;51.380;0.098;2022-10-20T07:54:39;15.90;99.90
63260;DHT22;49390;51.380;0.098;2022-10-20T07:57:07;15.90;99.90
63260;DHT22;49390;51.380;0.098;2022-10-20T07:59:35;15.90;99.90
63260;DHT22;49390;51.380;0.098;2022-10-20T08:02:03;15.90;99.90
63260;DHT22;49390;51.380;0.098;2022-10-20T08:04:32;16.00;99.90
63260;DHT22;49390;51.380;0.098;2022-10-20T08:07:01;15.90;99.90
63260;DHT22;49390;51.380;0.098;2022-10-20T08:09:29;16.00;99.90
63260;DHT22;49390;51.380;0.098;2022-10-20T08:11:59;16.00;99.90
63260;DHT22;49390;51.380;0.098;2022-10-20T08:14:27;16.00;99.90
63260;DHT22;49390;51.380;0.098;2022-10-20T08:16:59;16.10;99.90
63260;DHT22;49390;51.380;0.098;2022-10-20T08:19:30;16.10;99.90
63260;DHT22;49390;51.380;0.098;2022-10-20T08:22:15;16.10;99.90
63260;DHT22;49390;51.380;0.098;2022-10-20T08:24:46;16.10;99.90
63260;DHT22;49390;51.380;0.098;2022-10-20T08:27:16;16.20;99.90
63260;DHT22;49390;51.380;0.098;2022-10-20T08:29:44;16.20;99.90
63260;DHT22;49390;51.380;0.098;2022-10-20T08:32:27;16.20;99.90
63260;DHT22;49390;51.380;0.098;2022-10-20T08:34:55;16.20;99.90
63260;DHT22;49390;51.380;0.098;2022-10-20T08:37:25;16.20;99.90
63260;DHT22;49390;51.380;0.098;2022-10-20T08:39:55;16.30;99.90
63260;DHT22;49390;51.380;0.098;2022-10-20T08:43:33;16.30;99.90
63260;DHT22;49390;51.380;0.098;2022-10-20T08:46:11;16.30;99.90
63260;DHT22;49390;51.380;0.098;2022-10-20T08:48:41;16.40;99.90
63260;DHT22;49390;51.380;0.098;2022-10-20T08:51:21;16.40;99.90
63260;DHT22;49390;51.380;0.098;2022-10-20T08:53:52;16.40;99.90
63260;DHT22;49390;51.380;0.098;2022-10-20T08:56:26;16.50;99.90
63260;DHT22;49390;51.380;0.098;2022-10-20T08:58:55;16.50;99.90
63260;DHT22;49390;51.380;0.098;2022-10-20T09:01:29;16.50;99.90
63260;DHT22;49390;51.380;0.098;2022-10-20T09:04:13;16.50;99.90
63260;DHT22;49390;51.380;0.098;2022-10-20T09:06:42;16.50;99.90
63260;DHT22;49390;51.380;0.098;2022-10-20T09:09:19;16.60;99.90
63260;DHT22;49390;51.380;0.098;2022-10-20T09:11:51;16.60;99.90
63260;DHT22;49390;51.380;0.098;2022-10-20T09:14:31;16.60;99.90
63260;DHT22;49390;51.380;0.098;2022-10-20T09:17:00;16.60;99.90
63260;DHT22;49390;51.380;0.098;2022-10-20T09:19:29;16.60;99.90
63260;DHT22;49390;51.380;0.098;2022-10-20T09:22:02;16.60;99.90
63260;DHT22;49390;51.380;0.098;2022-10-20T09:24:31;16.60;99.90
63260;DHT22;49390;51.380;0.098;2022-10-20T09:27:26;16.60;99.90
63260;DHT22;49390;51.380;0.098;2022-10-20T09:29:56;16.60;99.90
63260;DHT22;49390;51.380;0.098;2022-10-20T09:32:33;16.60;99.90
63260;DHT22;49390;51.380;0.098;2022-10-20T09:35:29;16.70;99.90
63260;DHT22;49390;51.380;0.098;2022-10-20T09:40:52;16.70;99.90
63260;DHT22;49390;51.380;0.098;2022-10-20T09:43:24;16.70;99.90
63260;DHT22;49390;51.380;0.098;2022-10-20T09:45:55;16.70;99.90
63260;DHT22;49390;51.380;0.098;2022-10-20T09:48:28;16.80;99.90
63260;DHT22;49390;51.380;0.098;2022-10-20T09:50:59;16.70;99.90
63260;DHT22;49390;51.380;0.098;2022-10-20T09:59:02;16.80;99.90
63260;DHT22;49390;51.380;0.098;2022-10-20T10:01:32;16.80;99.90
63260;DHT22;49390;51.380;0.098;2022-10-20T10:04:01;16.80;99.90
63260;DHT22;49390;51.380;0.098;2022-10-20T10:06:38;16.90;99.90
63260;DHT22;49390;51.380;0.098;2022-10-20T10:12:03;16.90;99.90
63260;DHT22;49390;51.380;0.098;2022-10-20T10:14:34;16.90;99.90
63260;DHT22;49390;51.380;0.098;2022-10-20T10:17:04;16.90;99.90
63260;DHT22;49390;51.380;0.098;2022-10-20T10:19:33;16.80;99.90
63260;DHT22;49390;51.380;0.098;2022-10-20T10:22:02;16.80;99.90
63260;DHT22;49390;51.380;0.098;2022-10-20T10:27:25;16.80;99.90
63260;DHT22;49390;51.380;0.098;2022-10-20T10:29:56;16.60;99.90
63260;DHT22;49390;51.380;0.098;2022-10-20T10:32:43;16.60;99.90
63260;DHT22;49390;51.380;0.098;2022-10-20T10:38:11;16.50;99.90
63260;DHT22;49390;51.380;0.098;2022-10-20T10:43:42;16.50;99.90
63260;DHT22;49390;51.380;0.098;2022-10-20T10:46:16;16.40;99.90
63260;DHT22;49390;51.380;0.098;2022-10-20T10:51:46;16.60;99.90
63260;DHT22;49390;51.380;0.098;2022-10-20T10:56:57;16.90;99.90
63260;DHT22;49390;51.380;0.098;2022-10-20T10:59:32;17.00;99.90
63260;DHT22;49390;51.380;0.098;2022-10-20T11:05:28;17.20;99.90
63260;DHT22;49390;51.380;0.098;2022-10-20T11:08:22;17.30;99.90
63260;DHT22;49390;51.380;0.098;2022-10-20T11:13:48;17.40;99.90
63260;DHT22;49390;51.380;0.098;2022-10-20T11:22:02;17.50;99.90
63260;DHT22;49390;51.380;0.098;2022-10-20T11:27:19;17.60;99.90
63260;DHT22;49390;51.380;0.098;2022-10-20T11:30:14;17.60;99.90
63260;DHT22;49390;51.380;0.098;2022-10-20T11:35:43;17.60;99.90
63260;DHT22;49390;51.380;0.098;2022-10-20T11:38:40;17.60;99.90
63260;DHT22;49390;51.380;0.098;2022-10-20T11:44:02;17.60;99.90
63260;DHT22;49390;51.380;0.098;2022-10-20T11:46:36;17.60;99.90
63260;DHT22;49390;51.380;0.098;2022-10-20T11:49:05;17.60;99.90
63260;DHT22;49390;51.380;0.098;2022-10-20T11:54:51;17.60;99.90
63260;DHT22;49390;51.380;0.098;2022-10-20T12:11:57;17.50;99.90
63260;DHT22;49390;51.380;0.098;2022-10-20T12:14:37;17.50;99.90
63260;DHT22;49390;51.380;0.098;2022-10-20T12:17:33;17.50;99.90
63260;DHT22;49390;51.380;0.098;2022-10-20T12:22:50;17.40;99.90
63260;DHT22;49390;51.380;0.098;2022-10-20T12:30:58;17.30;99.90
63260;DHT22;49390;51.380;0.098;2022-10-20T12:38:51;17.10;99.90
63260;DHT22;49390;51.380;0.098;2022-10-20T12:41:29;17.10;99.90
63260;DHT22;49390;51.380;0.098;2022-10-20T12:44:05;17.10;99.90
63260;DHT22;49390;51.380;0.098;2022-10-20T12:46:39;17.20;99.90
63260;DHT22;49390;51.380;0.098;2022-10-20T12:49:25;17.10;99.90
63260;DHT22;49390;51.380;0.098;2022-10-20T12:51:56;17.20;99.90
63260;DHT22;49390;51.380;0.098;2022-10-20T12:54:31;17.30;99.90
63260;DHT22;49390;51.380;0.098;2022-10-20T12:57:31;17.50;99.90
63260;DHT22;49390;51.380;0.098;2022-10-20T13:02:51;17.70;99.90
63260;DHT22;49390;51.380;0.098;2022-10-20T13:05:27;17.70;99.90
63260;DHT22;49390;51.380;0.098;2022-10-20T13:08:01;17.70;99.90
63260;DHT22;49390;51.380;0.098;2022-10-20T13:10:34;17.70;99.90
63260;DHT22;49390;51.380;0.098;2022-10-20T13:20:42;17.60;99.90
63260;DHT22;49390;51.380;0.098;2022-10-20T13:23:15;17.70;99.90
63260;DHT22;49390;51.380;0.098;2022-10-20T13:25:55;17.70;99.90
63260;DHT22;49390;51.380;0.098;2022-10-20T13:28:30;17.70;99.90
63260;DHT22;49390;51.380;0.098;2022-10-20T13:37:16;17.70;99.90
63260;DHT22;49390;51.380;0.098;2022-10-20T13:50:54;17.70;99.90
63260;DHT22;49390;51.380;0.098;2022-10-20T13:53:26;17.70;99.90
63260;DHT22;49390;51.380;0.098;2022-10-20T13:56:06;17.70;99.90
63260;DHT22;49390;51.380;0.098;2022-10-20T13:58:34;17.70;99.90
63260;DHT22;49390;51.380;0.098;2022-10-20T14:03:41;17.70;99.90
63260;DHT22;49390;51.380;0.098;2022-10-20T14:06:30;17.70;99.90
63260;DHT22;49390;51.380;0.098;2022-10-20T14:09:21;17.70;99.90
63260;DHT22;49390;51.380;0.098;2022-10-20T14:12:06;17.70;99.90
63260;DHT22;49390;51.380;0.098;2022-10-20T14:14:35;17.70;99.90
63260;DHT22;49390;51.380;0.098;2022-10-20T14:17:05;17.70;99.90
63260;DHT22;49390;51.380;0.098;2022-10-20T14:19:34;17.60;99.90
63260;DHT22;49390;51.380;0.098;2022-10-20T14:22:23;17.60;99.90
63260;DHT22;49390;51.380;0.098;2022-10-20T14:24:55;17.50;99.90
63260;DHT22;49390;51.380;0.098;2022-10-20T14:27:31;17.50;99.90
63260;DHT22;49390;51.380;0.098;2022-10-20T14:30:03;17.50;99.90
63260;DHT22;49390;51.380;0.098;2022-10-20T14:32:37;17.50;99.90
63260;DHT22;49390;51.380;0.098;2022-10-20T14:37:53;17.50;99.90
63260;DHT22;49390;51.380;0.098;2022-10-20T14:40:25;17.50;99.90
63260;DHT22;49390;51.380;0.098;2022-10-20T14:43:01;17.50;99.90
63260;DHT22;49390;51.380;0.098;2022-10-20T14:45:29;17.60;99.90
63260;DHT22;49390;51.380;0.098;2022-10-20T14:48:05;17.50;99.90
63260;DHT22;49390;51.380;0.098;2022-10-20T14:50:36;17.50;99.90
63260;DHT22;49390;51.380;0.098;2022-10-20T14:55:54;17.50;99.90
63260;DHT22;49390;51.380;0.098;2022-10-20T15:01:20;17.60;99.90
63260;DHT22;49390;51.380;0.098;2022-10-20T15:06:43;17.60;99.90
63260;DHT22;49390;51.380;0.098;2022-10-20T15:09:27;17.50;99.90
63260;DHT22;49390;51.380;0.098;2022-10-20T15:11:56;17.50;99.90
63260;DHT22;49390;51.380;0.098;2022-10-20T15:14:24;17.50;99.90
63260;DHT22;49390;51.380;0.098;2022-10-20T15:16:52;17.50;99.90
63260;DHT22;49390;51.380;0.098;2022-10-20T15:19:46;17.50;99.90
63260;DHT22;49390;51.380;0.098;2022-10-20T15:22:14;17.40;99.90
63260;DHT22;49390;51.380;0.098;2022-10-20T15:24:43;17.40;99.90
63260;DHT22;49390;51.380;0.098;2022-10-20T15:27:17;17.30;99.90
63260;DHT22;49390;51.380;0.098;2022-10-20T15:29:48;17.20;99.90
63260;DHT22;49390;51.380;0.098;2022-10-20T15:32:17;17.10;99.90
63260;DHT22;49390;51.380;0.098;2022-10-20T15:34:45;17.10;99.90
63260;DHT22;49390;51.380;0.098;2022-10-20T15:37:15;17.10;99.90
63260;DHT22;49390;51.380;0.098;2022-10-20T15:39:43;17.10;99.90
63260;DHT22;49390;51.380;0.098;2022-10-20T15:42:11;17.00;99.90
63260;DHT22;49390;51.380;0.098;2022-10-20T15:44:39;17.00;99.90
63260;DHT22;49390;51.380;0.098;2022-10-20T15:47:07;17.00;99.90
63260;DHT22;49390;51.380;0.098;2022-10-20T15:49:35;17.00;99.90
63260;DHT22;49390;51.380;0.098;2022-10-20T15:52:03;17.00;99.90
63260;DHT22;49390;51.380;0.098;2022-10-20T15:54:32;17.00;99.90
63260;DHT22;49390;51.380;0.098;2022-10-20T15:57:00;16.90;99.90
63260;DHT22;49390;51.380;0.098;2022-10-20T15:59:28;16.90;99.90
63260;DHT22;49390;51.380;0.098;2022-10-20T16:02:05;16.90;99.90
63260;DHT22;49390;51.380;0.098;2022-10-20T16:04:33;16.90;99.90
63260;DHT22;49390;51.380;0.098;2022-10-20T16:07:02;16.80;99.90
63260;DHT22;49390;51.380;0.098;2022-10-20T16:09:32;16.80;99.90
63260;DHT22;49390;51.380;0.098;2022-10-20T16:11:59;16.80;99.90
63260;DHT22;49390;51.380;0.098;2022-10-20T16:14:27;16.80;99.90
63260;DHT22;49390;51.380;0.098;2022-10-20T16:16:55;16.90;99.90
63260;DHT22;49390;51.380;0.098;2022-10-20T16:19:26;16.90;99.90
63260;DHT22;49390;51.380;0.098;2022-10-20T16:21:54;16.90;99.90
63260;DHT22;49390;51.380;0.098;2022-10-20T16:24:23;16.90;99.90
63260;DHT22;49390;51.380;0.098;2022-10-20T16:26:51;16.90;99.90
63260;DHT22;49390;51.380;0.098;2022-10-20T16:29:22;16.80;99.90
63260;DHT22;49390;51.380;0.098;2022-10-20T16:31:49;16.90;99.90
63260;DHT22;49390;51.380;0.098;2022-10-20T16:34:17;16.80;99.90
63260;DHT22;49390;51.380;0.098;2022-10-20T16:36:47;16.70;99.90
63260;DHT22;49390;51.380;0.098;2022-10-20T16:39:16;16.70;99.90
63260;DHT22;49390;51.380;0.098;2022-10-20T16:41:45;16.60;99.90
63260;DHT22;49390;51.380;0.098;2022-10-20T16:44:14;16.60;99.90
63260;DHT22;49390;51.380;0.098;2022-10-20T16:46:42;16.60;99.90
63260;DHT22;49390;51.380;0.098;2022-10-20T16:49:10;16.50;99.90
63260;DHT22;49390;51.380;0.098;2022-10-20T16:51:37;16.50;99.90
63260;DHT22;49390;51.380;0.098;2022-10-20T16:54:06;16.40;99.90
63260;DHT22;49390;51.380;0.098;2022-10-20T16:56:34;16.30;99.90
63260;DHT22;49390;51.380;0.098;2022-10-20T16:59:02;16.30;99.90
63260;DHT22;49390;51.380;0.098;2022-10-20T17:01:34;16.30;99.90
63260;DHT22;49390;51.380;0.098;2022-10-20T17:04:02;16.20;99.90
63260;DHT22;49390;51.380;0.098;2022-10-20T17:06:31;16.20;99.90
63260;DHT22;49390;51.380;0.098;2022-10-20T17:08:59;16.20;99.90
63260;DHT22;49390;51.380;0.098;2022-10-20T17:11:29;16.20;99.90
63260;DHT22;49390;51.380;0.098;2022-10-20T17:13:58;16.20;99.90
63260;DHT22;49390;51.380;0.098;2022-10-20T17:16:32;16.20;99.90
63260;DHT22;49390;51.380;0.098;2022-10-20T17:19:01;16.10;99.90
63260;DHT22;49390;51.380;0.098;2022-10-20T17:21:30;16.10;99.90
63260;DHT22;49390;51.380;0.098;2022-10-20T17:23:59;16.10;99.90
63260;DHT22;49390;51.380;0.098;2022-10-20T17:26:28;16.10;99.90
63260;DHT22;49390;51.380;0.098;2022-10-20T17:29:00;16.00;99.90
63260;DHT22;49390;51.380;0.098;2022-10-20T17:31:29;16.00;99.90
63260;DHT22;49390;51.380;0.098;2022-10-20T17:33:58;15.90;99.90
63260;DHT22;49390;51.380;0.098;2022-10-20T17:36:28;15.80;99.90
63260;DHT22;49390;51.380;0.098;2022-10-20T17:38:59;15.80;99.90
63260;DHT22;49390;51.380;0.098;2022-10-20T17:41:27;15.70;99.90
63260;DHT22;49390;51.380;0.098;2022-10-20T17:43:58;15.70;99.90
63260;DHT22;49390;51.380;0.098;2022-10-20T17:46:26;15.60;99.90
63260;DHT22;49390;51.380;0.098;2022-10-20T17:48:54;15.60;99.90
63260;DHT22;49390;51.380;0.098;2022-10-20T17:51:24;15.50;99.90
63260;DHT22;49390;51.380;0.098;2022-10-20T17:53:59;15.50;99.90
63260;DHT22;49390;51.380;0.098;2022-10-20T17:56:34;15.40;99.90
63260;DHT22;49390;51.380;0.098;2022-10-20T17:59:04;15.40;99.90
63260;DHT22;49390;51.380;0.098;2022-10-20T18:01:38;15.40;99.90
63260;DHT22;49390;51.380;0.098;2022-10-20T18:04:15;15.30;99.90
63260;DHT22;49390;51.380;0.098;2022-10-20T18:10:11;15.20;99.90
63260;DHT22;49390;51.380;0.098;2022-10-20T18:12:40;15.20;99.90
63260;DHT22;49390;51.380;0.098;2022-10-20T18:15:08;15.20;99.90
63260;DHT22;49390;51.380;0.098;2022-10-20T18:17:37;15.10;99.90
63260;DHT22;49390;51.380;0.098;2022-10-20T18:20:06;15.10;99.90
63260;DHT22;49390;51.380;0.098;2022-10-20T18:22:35;15.10;99.90
63260;DHT22;49390;51.380;0.098;2022-10-20T18:25:04;15.00;99.90
63260;DHT22;49390;51.380;0.098;2022-10-20T18:27:34;15.00;99.90
63260;DHT22;49390;51.380;0.098;2022-10-20T18:30:02;14.90;99.90